createdAt,value
2023-01-24T00:03:42.492Z,10.35
2023-01-24T00:06:29.611Z,10.95
2023-01-24T00:09:17.685Z,12.15
2023-01-24T00:12:04.889Z,10.32
2023-01-24T00:14:52.574Z,10.98
2023-01-24T00:17:39.656Z,11.32
2023-01-24T00:20:26.804Z,10.80
2023-01-24T00:23:13.895Z,10.25
2023-01-24T00:26:00.925Z,10.10
2023-01-24T00:28:48.850Z,10.15
2023-01-24T00:31:35.976Z,10.52
2023-01-24T00:34:23.244Z,10.13
2023-01-24T00:37:10.321Z,10.38
2023-01-24T00:39:57.451Z,10.32
2023-01-24T00:42:44.552Z,10.40
2023-01-24T00:45:31.641Z,10.15
2023-01-24T00:48:18.916Z,10.38
2023-01-24T00:51:06.341Z,9.10
2023-01-24T00:53:53.531Z,8.60
2023-01-24T00:56:40.609Z,10.07
2023-01-24T00:59:27.716Z,9.68
2023-01-24T01:02:14.856Z,8.80
2023-01-24T01:05:01.987Z,9.77
2023-01-24T01:07:49.112Z,9.90
2023-01-24T01:10:36.631Z,9.95
2023-01-24T01:13:24.186Z,9.77
2023-01-24T01:16:13.952Z,8.63
2023-01-24T01:19:01.033Z,9.63
2023-01-24T01:21:48.562Z,8.75
2023-01-24T01:24:35.997Z,9.55
2023-01-24T01:27:23.089Z,9.27
2023-01-24T01:30:10.912Z,9.13
2023-01-24T01:32:57.944Z,9.73
2023-01-24T01:35:45.061Z,9.50
2023-01-24T01:38:32.281Z,8.50
2023-01-24T01:41:19.425Z,8.90
2023-01-24T01:44:44.571Z,8.45
2023-01-24T01:47:37.175Z,9.27
2023-01-24T01:50:38.393Z,8.73
2023-01-24T01:53:29.959Z,8.30
2023-01-24T01:56:31.593Z,7.70
2023-01-24T01:59:23.601Z,8.82
2023-01-24T02:02:11.601Z,8.55
2023-01-24T02:05:06.083Z,8.60
2023-01-24T02:08:03.962Z,7.78
2023-01-24T02:11:11.391Z,8.57
2023-01-24T02:14:20.393Z,8.88
2023-01-24T02:17:07.478Z,8.80
2023-01-24T02:20:10.443Z,9.05
2023-01-24T02:23:20.942Z,8.57
2023-01-24T02:26:19.086Z,8.30
2023-01-24T02:29:13.332Z,9.65
2023-01-24T02:32:03.368Z,9.52
2023-01-24T02:34:50.466Z,10.00
2023-01-24T02:37:38.211Z,8.90
2023-01-24T02:40:28.120Z,9.25
2023-01-24T02:43:17.579Z,9.02
2023-01-24T02:46:05.053Z,8.88
2023-01-24T02:48:52.468Z,9.70
2023-01-24T02:51:58.768Z,9.13
2023-01-24T02:54:45.866Z,8.32
2023-01-24T02:57:51.510Z,8.55
2023-01-24T03:00:43.163Z,8.73
2023-01-24T03:03:30.325Z,8.35
2023-01-24T03:06:18.453Z,8.15
2023-01-24T03:09:19.380Z,8.68
2023-01-24T03:12:27.241Z,8.75
2023-01-24T03:15:33.094Z,8.10
2023-01-24T03:18:38.665Z,7.95
2023-01-24T03:21:44.361Z,8.63
2023-01-24T03:24:50.518Z,7.90
2023-01-24T03:27:56.199Z,7.18
2023-01-24T03:31:02.015Z,8.43
2023-01-24T03:34:07.910Z,7.70
2023-01-24T03:36:55.011Z,7.93
2023-01-24T03:40:01.071Z,8.05
2023-01-24T03:42:49.182Z,8.10
2023-01-24T03:45:38.689Z,7.38
2023-01-24T03:48:36.020Z,8.70
2023-01-24T03:51:41.707Z,8.25
2023-01-24T03:54:29.049Z,8.75
2023-01-24T03:57:16.094Z,8.63
2023-01-24T04:00:03.852Z,8.93
2023-01-24T04:02:50.973Z,9.00
2023-01-24T04:05:38.013Z,9.25
2023-01-24T04:08:25.836Z,10.15
2023-01-24T04:11:12.909Z,9.30
2023-01-24T04:13:59.957Z,10.57
2023-01-24T04:16:47.048Z,10.32
2023-01-24T04:19:34.265Z,10.32
2023-01-24T04:22:21.381Z,10.90
2023-01-24T04:25:09.406Z,10.57
2023-01-24T04:27:57.135Z,10.55
2023-01-24T04:30:44.258Z,11.07
2023-01-24T04:33:31.331Z,10.55
2023-01-24T04:36:18.443Z,10.80
2023-01-24T04:39:05.623Z,11.25
2023-01-24T04:41:52.685Z,11.60
2023-01-24T04:44:39.801Z,10.73
2023-01-24T04:47:27.151Z,11.35
2023-01-24T04:50:14.281Z,11.73
2023-01-24T04:53:01.349Z,12.10
2023-01-24T04:55:48.391Z,10.23
2023-01-24T04:58:35.807Z,12.75
2023-01-24T05:01:22.866Z,12.07
2023-01-24T05:04:09.959Z,12.45
2023-01-24T05:06:57.105Z,13.15
2023-01-24T05:09:44.185Z,13.27
2023-01-24T05:12:31.222Z,12.57
2023-01-24T05:15:20.736Z,14.55
2023-01-24T05:18:08.022Z,13.05
2023-01-24T05:20:55.159Z,13.43
2023-01-24T05:23:42.958Z,12.25
2023-01-24T05:26:30.108Z,13.82
2023-01-24T05:29:17.284Z,12.77
2023-01-24T05:32:04.790Z,12.40
2023-01-24T05:34:51.866Z,13.30
2023-01-24T05:37:40.210Z,13.73
2023-01-24T05:40:28.409Z,13.73
2023-01-24T05:43:15.517Z,13.20
2023-01-24T05:46:08.729Z,13.40
2023-01-24T05:48:56.093Z,13.85
2023-01-24T05:51:43.119Z,12.68
2023-01-24T05:54:30.177Z,13.25
2023-01-24T05:57:17.871Z,12.65
2023-01-24T06:00:06.072Z,12.35
2023-01-24T06:02:53.943Z,13.63
2023-01-24T06:05:45.372Z,12.80
2023-01-24T06:08:32.499Z,13.15
2023-01-24T06:11:22.925Z,14.95
2023-01-24T06:14:10.521Z,13.48
2023-01-24T06:16:59.833Z,12.32
2023-01-24T06:19:47.218Z,12.48
2023-01-24T06:22:43.591Z,12.35
2023-01-24T06:25:30.965Z,11.95
2023-01-24T06:28:18.389Z,11.48
2023-01-24T06:31:29.889Z,12.15
2023-01-24T06:34:58.579Z,11.88
2023-01-24T06:37:53.386Z,11.52
2023-01-24T06:40:40.687Z,11.43
2023-01-24T06:43:28.342Z,12.40
2023-01-24T06:46:15.734Z,12.82
2023-01-24T06:49:02.891Z,11.95
2023-01-24T06:51:51.854Z,12.95
2023-01-24T06:54:38.865Z,12.00
2023-01-24T06:57:25.996Z,12.38
2023-01-24T07:00:13.987Z,11.15
2023-01-24T07:03:03.972Z,12.77
2023-01-24T07:05:51.130Z,12.80
2023-01-24T07:08:38.267Z,12.35
2023-01-24T07:11:25.466Z,11.95
2023-01-24T07:14:12.575Z,11.32
2023-01-24T07:16:59.990Z,13.40
2023-01-24T07:19:47.304Z,12.10
2023-01-24T07:22:37.385Z,12.25
2023-01-24T07:25:25.307Z,14.07
2023-01-24T07:28:12.822Z,14.38
2023-01-24T07:30:59.971Z,12.55
2023-01-24T07:33:47.141Z,13.82
2023-01-24T07:36:34.275Z,14.63
2023-01-24T07:39:21.340Z,14.63
2023-01-24T07:42:08.459Z,14.82
2023-01-24T07:44:57.677Z,13.93
2023-01-24T07:47:44.776Z,13.70
2023-01-24T07:50:32.404Z,14.32
2023-01-24T07:53:19.614Z,14.07
2023-01-24T07:56:10.269Z,13.32
2023-01-24T07:58:58.556Z,14.32
2023-01-24T08:01:45.680Z,13.13
2023-01-24T08:04:34.044Z,14.10
2023-01-24T08:07:23.000Z,14.35
2023-01-24T08:10:10.456Z,14.82
2023-01-24T08:12:57.621Z,15.48
2023-01-24T08:15:44.737Z,15.82
2023-01-24T08:18:31.805Z,14.57
2023-01-24T08:21:18.884Z,14.55
2023-01-24T08:24:06.832Z,13.75
2023-01-24T08:26:53.931Z,13.95
2023-01-24T08:29:41.006Z,15.02
2023-01-24T08:32:28.131Z,14.25
2023-01-24T08:35:15.473Z,15.43
2023-01-24T08:38:02.558Z,16.48
2023-01-24T08:40:50.809Z,15.00
2023-01-24T08:43:38.222Z,14.30
2023-01-24T08:46:25.411Z,15.73
2023-01-24T08:49:12.707Z,15.07
2023-01-24T08:52:00.219Z,15.63
2023-01-24T08:54:47.472Z,15.13
2023-01-24T08:57:34.555Z,14.73
2023-01-24T09:00:22.161Z,15.05
2023-01-24T09:03:12.361Z,15.27
2023-01-24T09:08:46.935Z,13.98
2023-01-24T09:11:34.039Z,14.70
2023-01-24T09:14:21.364Z,13.35
2023-01-24T09:17:08.552Z,14.18
2023-01-24T09:19:55.698Z,13.93
2023-01-24T09:22:42.835Z,13.10
2023-01-24T09:25:31.805Z,12.80
2023-01-24T09:28:21.346Z,12.80
2023-01-24T09:31:10.233Z,11.30
2023-01-24T09:33:59.875Z,12.27
2023-01-24T09:36:50.139Z,12.13
2023-01-24T09:39:37.732Z,10.57
2023-01-24T09:42:34.561Z,13.70
2023-01-24T09:45:24.807Z,14.68
2023-01-24T09:48:16.967Z,11.20
2023-01-24T09:51:14.590Z,13.30
2023-01-24T09:54:04.752Z,12.35
2023-01-24T09:56:53.351Z,12.13
2023-01-24T09:59:44.745Z,11.85
2023-01-24T10:02:31.878Z,11.18
2023-01-24T10:05:20.417Z,11.77
2023-01-24T10:08:45.402Z,11.95
2023-01-24T10:11:44.871Z,12.25
2023-01-24T10:14:31.865Z,10.85
2023-01-24T10:17:43.572Z,10.65
2023-01-24T10:21:07.195Z,11.23
2023-01-24T10:24:14.540Z,11.75
2023-01-24T10:27:11.261Z,11.25
2023-01-24T10:30:04.088Z,10.00
2023-01-24T10:32:56.359Z,11.30
2023-01-24T10:35:52.195Z,11.55
2023-01-24T10:38:39.460Z,10.65
2023-01-24T10:41:31.295Z,10.95
2023-01-24T10:44:29.215Z,11.75
2023-01-24T10:47:28.363Z,11.20
2023-01-24T10:50:17.669Z,11.40
2023-01-24T10:53:33.926Z,13.33
2023-01-24T10:56:22.146Z,13.13
2023-01-24T10:59:15.447Z,14.90
2023-01-24T11:02:02.484Z,15.23
2023-01-24T11:04:59.399Z,14.88
2023-01-24T11:08:01.505Z,16.30
2023-01-24T11:10:56.300Z,16.77
2023-01-24T11:13:44.747Z,17.27
2023-01-24T11:16:35.612Z,17.40
2023-01-24T11:19:34.358Z,17.70
2023-01-24T11:22:27.418Z,16.63
2023-01-24T11:25:16.066Z,17.40
2023-01-24T11:28:03.198Z,17.10
2023-01-24T11:30:50.869Z,18.70
2023-01-24T11:33:54.221Z,17.15
2023-01-24T11:36:50.684Z,18.02
2023-01-24T11:39:56.525Z,18.65
2023-01-24T11:42:49.473Z,16.55
2023-01-24T11:45:51.719Z,17.25
2023-01-24T11:48:44.787Z,17.35
2023-01-24T11:51:51.425Z,17.15
2023-01-24T11:54:38.476Z,18.08
2023-01-24T11:58:04.378Z,18.30
2023-01-24T12:01:02.391Z,17.50
2023-01-24T12:03:55.040Z,16.95
2023-01-24T12:07:08.313Z,16.48
2023-01-24T12:10:20.583Z,17.45
2023-01-24T12:14:00.290Z,17.83
2023-01-24T12:16:47.606Z,18.42
2023-01-24T12:19:53.550Z,18.08
2023-01-24T12:22:45.415Z,18.25
2023-01-24T12:25:38.990Z,18.38
2023-01-24T12:28:36.640Z,17.92
2023-01-24T12:31:36.662Z,18.33
2023-01-24T12:35:11.362Z,19.58
2023-01-24T12:38:18.816Z,18.88
2023-01-24T12:41:14.831Z,19.05
2023-01-24T12:44:30.190Z,19.30
2023-01-24T12:47:40.242Z,19.25
2023-01-24T12:50:39.340Z,19.25
2023-01-24T12:53:34.904Z,19.17
2023-01-24T12:56:46.735Z,21.52
2023-01-24T12:59:34.911Z,20.13
2023-01-24T13:02:38.773Z,18.85
2023-01-24T13:05:38.117Z,19.27
2023-01-24T13:08:50.270Z,19.17
2023-01-24T13:11:46.343Z,20.25
2023-01-24T13:14:42.214Z,19.77
2023-01-24T13:17:56.720Z,20.52
2023-01-24T13:20:52.616Z,19.55
2023-01-24T13:23:58.194Z,20.02
2023-01-24T13:26:57.772Z,20.55
2023-01-24T13:30:38.100Z,19.98
2023-01-24T13:33:41.890Z,18.77
2023-01-24T13:36:38.580Z,18.70
2023-01-24T13:39:43.359Z,19.60
2023-01-24T13:42:36.571Z,19.08
2023-01-24T13:45:32.399Z,18.85
2023-01-24T13:48:41.166Z,19.60
2023-01-24T13:51:36.220Z,19.80
2023-01-24T13:54:37.722Z,20.52
2023-01-24T13:57:30.102Z,20.42
2023-01-24T14:00:20.251Z,17.15
2023-01-24T14:03:37.349Z,19.45
2023-01-24T14:06:26.872Z,18.55
2023-01-24T14:09:21.115Z,18.25
2023-01-24T14:12:17.700Z,18.25
2023-01-24T14:15:10.546Z,17.67
2023-01-24T14:17:58.129Z,18.10
2023-01-24T14:20:47.034Z,16.15
2023-01-24T14:23:34.983Z,18.65
2023-01-24T14:26:31.320Z,18.25
2023-01-24T14:29:19.017Z,16.15
2023-01-24T14:32:25.310Z,16.50
2023-01-24T14:35:21.099Z,18.27
2023-01-24T14:38:19.226Z,16.70
2023-01-24T14:41:07.173Z,15.98
2023-01-24T14:43:54.301Z,16.33
2023-01-24T14:46:41.581Z,17.08
2023-01-24T14:49:30.182Z,17.60
2023-01-24T14:52:23.584Z,17.80
2023-01-24T14:55:33.968Z,17.75
2023-01-24T15:01:32.209Z,16.50
2023-01-24T15:04:28.853Z,18.15
2023-01-24T15:07:17.601Z,16.95
2023-01-24T15:10:13.422Z,18.05
2023-01-24T15:13:08.881Z,17.95
2023-01-24T15:15:57.484Z,17.70
2023-01-24T15:18:50.808Z,16.25
2023-01-24T15:21:46.132Z,18.63
2023-01-24T15:24:33.416Z,17.83
2023-01-24T15:27:28.752Z,17.67
2023-01-24T15:30:22.223Z,19.38
2023-01-24T15:33:13.168Z,16.63
2023-01-24T15:36:00.399Z,16.95
2023-01-24T15:38:55.865Z,17.02
2023-01-24T15:42:01.527Z,16.95
2023-01-24T15:44:49.578Z,15.95
2023-01-24T15:47:45.664Z,17.77
2023-01-24T15:50:51.306Z,17.50
2023-01-24T15:53:43.686Z,15.35
2023-01-24T15:56:35.268Z,16.85
2023-01-24T15:59:23.457Z,16.23
2023-01-24T16:02:14.711Z,17.02
2023-01-24T16:05:02.238Z,16.63
2023-01-24T16:07:49.316Z,15.65
2023-01-24T16:10:37.021Z,16.75
2023-01-24T16:13:34.900Z,15.68
2023-01-24T16:16:22.156Z,15.55
2023-01-24T16:19:16.818Z,16.58
2023-01-24T16:22:03.869Z,15.00
2023-01-24T16:24:50.891Z,16.45
2023-01-24T16:27:39.798Z,15.52
2023-01-24T16:30:27.045Z,15.45
2023-01-24T16:33:15.765Z,16.27
2023-01-24T16:36:02.803Z,15.02
2023-01-24T16:38:49.881Z,14.88
2023-01-24T16:41:37.194Z,14.20
2023-01-24T16:44:24.402Z,15.25
2023-01-24T16:47:11.491Z,15.35
2023-01-24T16:49:59.060Z,14.73
2023-01-24T16:52:46.947Z,15.07
2023-01-24T16:55:39.870Z,14.85
2023-01-24T16:58:27.115Z,15.13
2023-01-24T17:01:14.847Z,14.52
2023-01-24T17:04:03.874Z,15.35
2023-01-24T17:06:51.035Z,14.38
2023-01-24T17:09:38.349Z,13.93
2023-01-24T17:12:25.794Z,15.57
2023-01-24T17:15:13.720Z,14.85
2023-01-24T17:18:01.179Z,15.25
2023-01-24T17:20:48.511Z,16.10
2023-01-24T17:23:38.660Z,14.65
2023-01-24T17:26:26.199Z,15.25
2023-01-24T17:29:14.656Z,14.73
2023-01-24T17:32:06.188Z,14.68
2023-01-24T17:34:53.686Z,15.55
2023-01-24T17:37:41.527Z,13.95
2023-01-24T17:40:30.878Z,15.40
2023-01-24T17:43:19.606Z,16.27
2023-01-24T17:46:07.485Z,16.42
2023-01-24T17:48:55.456Z,15.13
2023-01-24T17:51:43.694Z,16.05
2023-01-24T17:54:31.472Z,16.73
2023-01-24T17:57:19.094Z,13.70
2023-01-24T18:00:07.926Z,14.02
2023-01-24T18:02:56.481Z,13.75
2023-01-24T18:05:44.587Z,13.45
2023-01-24T18:08:32.688Z,12.40
2023-01-24T18:11:20.986Z,13.48
2023-01-24T18:14:11.203Z,13.40
2023-01-24T18:16:59.015Z,13.25
2023-01-24T18:19:47.513Z,14.30
2023-01-24T18:22:34.967Z,14.52
2023-01-24T18:25:22.987Z,14.98
2023-01-24T18:28:10.588Z,15.10
2023-01-24T18:30:58.592Z,14.32
2023-01-24T18:33:46.581Z,14.10
2023-01-24T18:36:34.831Z,14.43
2023-01-24T18:39:22.775Z,13.25
2023-01-24T18:42:11.847Z,12.13
2023-01-24T18:45:01.099Z,14.43
2023-01-24T18:47:50.623Z,18.00
2023-01-24T18:50:39.336Z,15.98
2023-01-24T18:53:27.487Z,14.57
2023-01-24T18:56:18.001Z,16.95
2023-01-24T18:59:06.057Z,17.98
2023-01-24T19:01:54.454Z,16.70
2023-01-24T19:04:42.236Z,14.27
2023-01-24T19:07:32.023Z,14.80
2023-01-24T19:10:20.034Z,13.45
2023-01-24T19:13:10.958Z,14.13
2023-01-24T19:16:03.044Z,13.23
2023-01-24T19:18:53.851Z,15.23
2023-01-24T19:21:42.130Z,13.93
2023-01-24T19:24:31.342Z,14.50
2023-01-24T19:27:19.569Z,14.50
2023-01-24T19:30:09.007Z,14.75
2023-01-24T19:32:56.783Z,15.38
2023-01-24T19:35:44.747Z,15.82
2023-01-24T19:38:32.893Z,16.10
2023-01-24T19:41:21.208Z,15.82
2023-01-24T19:44:24.620Z,15.82
2023-01-24T19:47:12.709Z,17.02
2023-01-24T19:50:00.897Z,15.45
2023-01-24T19:52:49.861Z,15.40
2023-01-24T19:55:39.807Z,14.50
2023-01-24T19:58:30.049Z,15.55
2023-01-24T20:01:21.038Z,15.05
2023-01-24T20:04:25.649Z,15.88
2023-01-24T20:07:14.006Z,14.70
2023-01-24T20:10:02.578Z,15.90
2023-01-24T20:12:56.008Z,15.10
2023-01-24T20:15:44.390Z,14.40
2023-01-24T20:18:35.789Z,15.00
2023-01-24T20:21:25.600Z,16.33
2023-01-24T20:24:13.847Z,15.60
2023-01-24T20:27:01.820Z,15.57
2023-01-24T20:29:51.036Z,16.17
2023-01-24T20:32:38.729Z,16.43
2023-01-24T20:35:27.667Z,15.38
2023-01-24T20:38:16.807Z,15.73
2023-01-24T20:41:09.713Z,16.45
2023-01-24T20:44:03.066Z,17.77
2023-01-24T20:46:51.063Z,19.10
2023-01-24T20:49:38.602Z,18.33
2023-01-24T20:52:26.245Z,19.05
2023-01-24T20:55:14.004Z,17.83
2023-01-24T20:58:01.952Z,18.40
2023-01-24T21:00:50.215Z,17.52
2023-01-24T21:03:38.103Z,16.00
2023-01-24T21:06:26.248Z,17.77
2023-01-24T21:09:13.964Z,18.50
2023-01-24T21:12:01.112Z,19.23
2023-01-24T21:14:48.939Z,17.27
2023-01-24T21:17:36.371Z,22.00
2023-01-24T21:20:25.513Z,19.30
2023-01-24T21:23:14.058Z,20.42
2023-01-24T21:26:07.270Z,18.67
2023-01-24T21:28:55.224Z,18.80
2023-01-24T21:31:42.475Z,17.60
2023-01-24T21:34:30.206Z,18.83
2023-01-24T21:37:28.125Z,19.10
2023-01-24T21:40:15.835Z,19.08
2023-01-24T21:43:02.963Z,17.95
2023-01-24T21:45:53.068Z,19.15
2023-01-24T21:49:00.638Z,17.45
2023-01-24T21:51:53.851Z,16.48
2023-01-24T21:54:40.946Z,15.88
2023-01-24T21:57:46.336Z,16.88
2023-01-24T22:00:33.512Z,16.80
2023-01-24T22:03:26.657Z,17.20
2023-01-24T22:06:13.756Z,17.20
2023-01-24T22:09:00.945Z,16.83
2023-01-24T22:11:48.621Z,18.30
2023-01-24T22:14:36.806Z,17.20
2023-01-24T22:17:24.700Z,15.95
2023-01-24T22:20:16.882Z,17.25
2023-01-24T22:23:20.708Z,17.33
2023-01-24T22:26:12.646Z,15.38
2023-01-24T22:29:00.090Z,19.23
2023-01-24T22:31:47.533Z,19.63
2023-01-24T22:34:35.143Z,17.42
2023-01-24T22:37:27.970Z,18.73
2023-01-24T22:40:21.065Z,20.75
2023-01-24T22:43:08.233Z,18.80
2023-01-24T22:45:55.344Z,17.50
2023-01-24T22:48:42.380Z,18.02
2023-01-24T22:51:29.659Z,17.30
2023-01-24T22:54:16.806Z,15.65
2023-01-24T22:57:04.444Z,19.15
2023-01-24T22:59:51.522Z,18.45
2023-01-24T23:02:39.076Z,17.17
2023-01-24T23:05:26.305Z,19.50
2023-01-24T23:08:13.572Z,21.05
2023-01-24T23:11:13.072Z,18.63
2023-01-24T23:14:18.830Z,20.42
2023-01-24T23:17:11.822Z,18.95
2023-01-24T23:20:17.498Z,18.33
2023-01-24T23:23:04.541Z,17.20
2023-01-24T23:25:51.694Z,18.70
2023-01-24T23:28:42.821Z,17.33
2023-01-24T23:31:30.034Z,17.60
2023-01-24T23:34:39.550Z,17.80
2023-01-24T23:37:30.315Z,15.80
2023-01-24T23:40:18.231Z,14.88
2023-01-24T23:43:05.481Z,15.70
2023-01-24T23:45:52.596Z,17.05
2023-01-24T23:48:39.770Z,16.13
2023-01-24T23:51:26.814Z,16.15
2023-01-24T23:54:13.933Z,16.35
2023-01-24T23:57:01.428Z,18.85
2023-01-24T23:59:48.571Z,18.08
